sensor_id;sensor_type;location;lat;lon;timestamp;pressure;altitude;pressure_sealevel;temperature;humidity
52975;BME280;38839;45.186;5.720;2022-09-09T00:09:21;99007.78;;;19.81;59.68
52975;BME280;38839;45.186;5.720;2022-09-09T00:12:17;99010.75;;;19.74;60.03
52975;BME280;38839;45.186;5.720;2022-09-09T00:15:06;99017.13;;;19.68;59.84
52975;BME280;38839;45.186;5.720;2022-09-09T00:17:52;99013.63;;;19.67;59.80
52975;BME280;38839;45.186;5.720;2022-09-09T00:20:49;99018.97;;;19.66;59.81
52975;BME280;38839;45.186;5.720;2022-09-09T00:23:38;99022.47;;;19.66;59.97
52975;BME280;38839;45.186;5.720;2022-09-09T00:28:52;99014.69;;;19.63;59.67
52975;BME280;38839;45.186;5.720;2022-09-09T00:31:26;99009.66;;;19.57;59.79
52975;BME280;38839;45.186;5.720;2022-09-09T00:33:52;99003.63;;;19.54;59.75
52975;BME280;38839;45.186;5.720;2022-09-09T00:36:21;99008.91;;;19.54;60.03
52975;BME280;38839;45.186;5.720;2022-09-09T00:38:49;99007.31;;;19.49;60.08
52975;BME280;38839;45.186;5.720;2022-09-09T00:44:00;99004.88;;;19.45;60.15
52975;BME280;38839;45.186;5.720;2022-09-09T00:46:49;99004.97;;;19.42;60.42
52975;BME280;38839;45.186;5.720;2022-09-09T00:49:44;99011.47;;;19.35;60.57
52975;BME280;38839;45.186;5.720;2022-09-09T00:55:33;99011.78;;;19.27;61.39
52975;BME280;38839;45.186;5.720;2022-09-09T00:58:06;99006.00;;;19.17;61.58
52975;BME280;38839;45.186;5.720;2022-09-09T01:00:42;99008.72;;;19.16;62.66
52975;BME280;38839;45.186;5.720;2022-09-09T01:03:29;99009.81;;;19.10;62.40
52975;BME280;38839;45.186;5.720;2022-09-09T01:11:01;99002.69;;;19.12;62.42
52975;BME280;38839;45.186;5.720;2022-09-09T01:13:35;99007.84;;;19.15;62.91
52975;BME280;38839;45.186;5.720;2022-09-09T01:16:03;99000.09;;;19.10;62.36
52975;BME280;38839;45.186;5.720;2022-09-09T01:18:36;99001.09;;;19.08;62.94
52975;BME280;38839;45.186;5.720;2022-09-09T01:24:08;99008.09;;;19.09;63.15
52975;BME280;38839;45.186;5.720;2022-09-09T01:26:41;99003.03;;;19.03;63.30
52975;BME280;38839;45.186;5.720;2022-09-09T01:29:07;99003.19;;;19.00;63.64
52975;BME280;38839;45.186;5.720;2022-09-09T01:31:39;98998.75;;;19.00;63.30
52975;BME280;38839;45.186;5.720;2022-09-09T01:34:13;99008.47;;;19.00;63.75
52975;BME280;38839;45.186;5.720;2022-09-09T01:36:46;99007.72;;;18.96;64.14
52975;BME280;38839;45.186;5.720;2022-09-09T01:39:16;99002.69;;;18.90;64.24
52975;BME280;38839;45.186;5.720;2022-09-09T01:41:42;99002.91;;;18.84;64.20
52975;BME280;38839;45.186;5.720;2022-09-09T01:44:08;99001.34;;;18.78;64.36
52975;BME280;38839;45.186;5.720;2022-09-09T01:46:33;99002.97;;;18.59;65.88
52975;BME280;38839;45.186;5.720;2022-09-09T01:49:00;99012.69;;;18.35;67.72
52975;BME280;38839;45.186;5.720;2022-09-09T01:51:28;99014.91;;;18.22;68.79
52975;BME280;38839;45.186;5.720;2022-09-09T01:53:53;99019.72;;;18.10;71.46
52975;BME280;38839;45.186;5.720;2022-09-09T01:56:35;99031.59;;;17.99;72.74
52975;BME280;38839;45.186;5.720;2022-09-09T02:01:48;99020.97;;;18.00;72.31
52975;BME280;38839;45.186;5.720;2022-09-09T02:04:27;99021.63;;;18.07;71.78
52975;BME280;38839;45.186;5.720;2022-09-09T02:06:56;99031.22;;;18.09;72.29
52975;BME280;38839;45.186;5.720;2022-09-09T02:09:25;99028.13;;;18.22;72.42
52975;BME280;38839;45.186;5.720;2022-09-09T02:12:06;99029.69;;;18.27;73.57
52975;BME280;38839;45.186;5.720;2022-09-09T02:14:40;99036.03;;;18.22;74.85
52975;BME280;38839;45.186;5.720;2022-09-09T02:17:10;99029.16;;;18.18;74.82
52975;BME280;38839;45.186;5.720;2022-09-09T02:19:45;99031.09;;;18.13;74.82
52975;BME280;38839;45.186;5.720;2022-09-09T02:22:16;99023.28;;;18.09;75.15
52975;BME280;38839;45.186;5.720;2022-09-09T02:24:42;99026.81;;;18.08;75.32
52975;BME280;38839;45.186;5.720;2022-09-09T02:27:11;99032.09;;;18.08;75.16
52975;BME280;38839;45.186;5.720;2022-09-09T02:29:40;99036.50;;;18.09;75.39
52975;BME280;38839;45.186;5.720;2022-09-09T02:32:12;99033.03;;;18.07;76.24
52975;BME280;38839;45.186;5.720;2022-09-09T02:34:45;99028.88;;;18.00;76.35
52975;BME280;38839;45.186;5.720;2022-09-09T02:37:15;99021.19;;;17.94;76.10
52975;BME280;38839;45.186;5.720;2022-09-09T02:39:42;99027.56;;;17.88;76.98
52975;BME280;38839;45.186;5.720;2022-09-09T02:42:08;99030.34;;;17.84;77.24
52975;BME280;38839;45.186;5.720;2022-09-09T02:44:34;99024.63;;;17.69;77.45
52975;BME280;38839;45.186;5.720;2022-09-09T02:47:19;99028.03;;;17.73;77.59
52975;BME280;38839;45.186;5.720;2022-09-09T02:50:04;99023.63;;;17.74;77.36
52975;BME280;38839;45.186;5.720;2022-09-09T02:55:28;99027.38;;;17.66;77.73
52975;BME280;38839;45.186;5.720;2022-09-09T02:58:00;99025.44;;;17.72;77.04
52975;BME280;38839;45.186;5.720;2022-09-09T03:00:29;99023.72;;;17.70;77.06
52975;BME280;38839;45.186;5.720;2022-09-09T03:02:56;99030.72;;;17.72;76.82
52975;BME280;38839;45.186;5.720;2022-09-09T03:05:21;99025.56;;;17.68;76.63
52975;BME280;38839;45.186;5.720;2022-09-09T03:07:47;99031.69;;;17.69;76.54
52975;BME280;38839;45.186;5.720;2022-09-09T03:10:12;99025.44;;;17.72;76.58
52975;BME280;38839;45.186;5.720;2022-09-09T03:12:38;99029.00;;;17.70;76.50
52975;BME280;38839;45.186;5.720;2022-09-09T03:15:05;99029.00;;;17.70;76.67
52975;BME280;38839;45.186;5.720;2022-09-09T03:17:31;99035.19;;;17.69;76.26
52975;BME280;38839;45.186;5.720;2022-09-09T03:19:56;99031.81;;;17.66;76.57
52975;BME280;38839;45.186;5.720;2022-09-09T03:22:22;99031.03;;;17.62;76.76
52975;BME280;38839;45.186;5.720;2022-09-09T03:24:48;99034.69;;;17.58;76.62
52975;BME280;38839;45.186;5.720;2022-09-09T03:27:13;99042.66;;;17.57;76.30
52975;BME280;38839;45.186;5.720;2022-09-09T03:29:42;99040.06;;;17.55;76.01
52975;BME280;38839;45.186;5.720;2022-09-09T03:32:08;99035.75;;;17.53;75.69
52975;BME280;38839;45.186;5.720;2022-09-09T03:34:35;99033.16;;;17.51;75.58
52975;BME280;38839;45.186;5.720;2022-09-09T03:37:02;99031.47;;;17.50;75.63
52975;BME280;38839;45.186;5.720;2022-09-09T03:39:27;99033.38;;;17.45;75.77
52975;BME280;38839;45.186;5.720;2022-09-09T03:41:54;99050.16;;;17.42;75.68
52975;BME280;38839;45.186;5.720;2022-09-09T03:44:19;99052.84;;;17.41;75.48
52975;BME280;38839;45.186;5.720;2022-09-09T03:46:44;99047.69;;;17.38;75.54
52975;BME280;38839;45.186;5.720;2022-09-09T03:49:10;99057.59;;;17.31;75.58
52975;BME280;38839;45.186;5.720;2022-09-09T03:51:36;99053.25;;;17.28;75.52
52975;BME280;38839;45.186;5.720;2022-09-09T03:54:02;99053.34;;;17.25;75.52
52975;BME280;38839;45.186;5.720;2022-09-09T03:56:30;99055.03;;;17.28;75.25
52975;BME280;38839;45.186;5.720;2022-09-09T03:58:55;99054.31;;;17.23;74.67
52975;BME280;38839;45.186;5.720;2022-09-09T04:01:20;99059.63;;;17.21;74.97
52975;BME280;38839;45.186;5.720;2022-09-09T04:03:46;99065.72;;;17.23;74.78
52975;BME280;38839;45.186;5.720;2022-09-09T04:06:12;99056.88;;;17.24;74.48
52975;BME280;38839;45.186;5.720;2022-09-09T04:08:39;99058.91;;;17.16;74.68
52975;BME280;38839;45.186;5.720;2022-09-09T04:11:05;99060.84;;;17.11;74.66
52975;BME280;38839;45.186;5.720;2022-09-09T04:13:31;99058.34;;;17.06;74.78
52975;BME280;38839;45.186;5.720;2022-09-09T04:15:59;99057.28;;;17.12;74.64
52975;BME280;38839;45.186;5.720;2022-09-09T04:18:25;99061.66;;;17.13;74.36
52975;BME280;38839;45.186;5.720;2022-09-09T04:20:52;99059.03;;;17.13;73.82
52975;BME280;38839;45.186;5.720;2022-09-09T04:23:18;99059.03;;;17.13;73.44
52975;BME280;38839;45.186;5.720;2022-09-09T04:25:46;99059.22;;;17.07;73.71
52975;BME280;38839;45.186;5.720;2022-09-09T04:28:13;99058.25;;;17.09;73.29
52975;BME280;38839;45.186;5.720;2022-09-09T04:30:38;99059.41;;;17.01;73.36
52975;BME280;38839;45.186;5.720;2022-09-09T04:33:05;99058.53;;;17.00;73.78
52975;BME280;38839;45.186;5.720;2022-09-09T04:35:32;99057.00;;;16.93;73.52
52975;BME280;38839;45.186;5.720;2022-09-09T04:37:58;99059.66;;;16.92;73.74
52975;BME280;38839;45.186;5.720;2022-09-09T04:40:23;99061.47;;;16.89;73.86
52975;BME280;38839;45.186;5.720;2022-09-09T04:42:49;99061.56;;;16.88;73.62
52975;BME280;38839;45.186;5.720;2022-09-09T04:45:15;99065.00;;;16.90;73.56
52975;BME280;38839;45.186;5.720;2022-09-09T04:47:41;99072.03;;;16.89;73.28
52975;BME280;38839;45.186;5.720;2022-09-09T04:50:07;99066.03;;;16.84;73.49
52975;BME280;38839;45.186;5.720;2022-09-09T04:52:34;99066.16;;;16.80;73.74
52975;BME280;38839;45.186;5.720;2022-09-09T04:55:00;99059.03;;;16.83;73.68
52975;BME280;38839;45.186;5.720;2022-09-09T04:57:26;99063.50;;;16.81;73.30
52975;BME280;38839;45.186;5.720;2022-09-09T04:59:51;99071.28;;;16.86;73.60
52975;BME280;38839;45.186;5.720;2022-09-09T05:02:16;99072.22;;;16.83;73.42
52975;BME280;38839;45.186;5.720;2022-09-09T05:04:42;99076.72;;;16.78;73.56
52975;BME280;38839;45.186;5.720;2022-09-09T05:07:08;99071.44;;;16.80;73.59
52975;BME280;38839;45.186;5.720;2022-09-09T05:09:33;99075.91;;;16.76;73.59
52975;BME280;38839;45.186;5.720;2022-09-09T05:11:58;99074.03;;;16.81;73.82
52975;BME280;38839;45.186;5.720;2022-09-09T05:14:24;99080.19;;;16.82;73.51
52975;BME280;38839;45.186;5.720;2022-09-09T05:16:49;99090.72;;;16.82;73.54
52975;BME280;38839;45.186;5.720;2022-09-09T05:19:15;99088.00;;;16.83;73.53
52975;BME280;38839;45.186;5.720;2022-09-09T05:21:44;99095.91;;;16.83;73.46
52975;BME280;38839;45.186;5.720;2022-09-09T05:24:09;99088.97;;;16.79;73.47
52975;BME280;38839;45.186;5.720;2022-09-09T05:26:35;99094.25;;;16.81;73.42
52975;BME280;38839;45.186;5.720;2022-09-09T05:29:00;99095.09;;;16.81;73.35
52975;BME280;38839;45.186;5.720;2022-09-09T05:31:26;99093.34;;;16.80;73.40
52975;BME280;38839;45.186;5.720;2022-09-09T05:33:53;99102.00;;;16.85;73.30
52975;BME280;38839;45.186;5.720;2022-09-09T05:36:20;99108.16;;;16.86;73.20
52975;BME280;38839;45.186;5.720;2022-09-09T05:38:46;99113.44;;;16.86;73.02
52975;BME280;38839;45.186;5.720;2022-09-09T05:41:13;99112.19;;;16.98;72.39
52975;BME280;38839;45.186;5.720;2022-09-09T05:43:41;99109.25;;;17.08;72.18
52975;BME280;38839;45.186;5.720;2022-09-09T05:46:09;99115.00;;;17.21;71.52
52975;BME280;38839;45.186;5.720;2022-09-09T05:48:36;99111.25;;;17.28;70.86
52975;BME280;38839;45.186;5.720;2022-09-09T05:51:03;99114.81;;;17.27;71.00
52975;BME280;38839;45.186;5.720;2022-09-09T05:53:29;99118.25;;;17.29;70.85
52975;BME280;38839;45.186;5.720;2022-09-09T05:56:09;99120.09;;;17.27;70.87
52975;BME280;38839;45.186;5.720;2022-09-09T05:58:36;99126.16;;;17.29;70.74
52975;BME280;38839;45.186;5.720;2022-09-09T06:03:33;99132.53;;;17.22;71.41
52975;BME280;38839;45.186;5.720;2022-09-09T06:06:02;99123.06;;;17.17;71.49
52975;BME280;38839;45.186;5.720;2022-09-09T06:08:30;99128.22;;;17.20;71.65
52975;BME280;38839;45.186;5.720;2022-09-09T06:11:01;99123.31;;;17.07;71.93
52975;BME280;38839;45.186;5.720;2022-09-09T06:13:28;99120.66;;;17.09;71.77
52975;BME280;38839;45.186;5.720;2022-09-09T06:15:53;99128.97;;;17.25;71.35
52975;BME280;38839;45.186;5.720;2022-09-09T06:18:19;99135.91;;;17.27;71.30
52975;BME280;38839;45.186;5.720;2022-09-09T06:20:57;99133.94;;;17.34;70.81
52975;BME280;38839;45.186;5.720;2022-09-09T06:23:24;99134.66;;;17.39;70.57
52975;BME280;38839;45.186;5.720;2022-09-09T06:25:50;99131.97;;;17.41;70.04
52975;BME280;38839;45.186;5.720;2022-09-09T06:28:16;99127.69;;;17.37;70.41
52975;BME280;38839;45.186;5.720;2022-09-09T06:30:42;99122.75;;;17.26;70.55
52975;BME280;38839;45.186;5.720;2022-09-09T06:33:08;99120.91;;;17.29;70.82
52975;BME280;38839;45.186;5.720;2022-09-09T06:35:34;99121.41;;;17.41;70.24
52975;BME280;38839;45.186;5.720;2022-09-09T06:38:00;99119.69;;;17.40;70.10
52975;BME280;38839;45.186;5.720;2022-09-09T06:40:25;99132.59;;;17.49;70.02
52975;BME280;38839;45.186;5.720;2022-09-09T06:42:50;99129.94;;;17.49;70.26
52975;BME280;38839;45.186;5.720;2022-09-09T06:45:16;99136.03;;;17.51;70.38
52975;BME280;38839;45.186;5.720;2022-09-09T06:47:43;99137.00;;;17.48;70.52
52975;BME280;38839;45.186;5.720;2022-09-09T06:50:08;99139.78;;;17.44;70.42
52975;BME280;38839;45.186;5.720;2022-09-09T06:52:36;99150.34;;;17.44;70.66
52975;BME280;38839;45.186;5.720;2022-09-09T06:55:02;99147.59;;;17.47;70.63
52975;BME280;38839;45.186;5.720;2022-09-09T06:57:28;99148.13;;;17.58;70.38
52975;BME280;38839;45.186;5.720;2022-09-09T06:59:53;99144.31;;;17.67;70.35
52975;BME280;38839;45.186;5.720;2022-09-09T07:02:19;99148.50;;;17.74;70.00
52975;BME280;38839;45.186;5.720;2022-09-09T07:04:45;99147.81;;;17.67;69.89
52975;BME280;38839;45.186;5.720;2022-09-09T07:07:10;99148.56;;;17.73;70.20
52975;BME280;38839;45.186;5.720;2022-09-09T07:09:37;99146.53;;;17.81;69.93
52975;BME280;38839;45.186;5.720;2022-09-09T07:12:02;99144.69;;;17.84;69.45
52975;BME280;38839;45.186;5.720;2022-09-09T07:14:30;99138.47;;;17.85;69.48
52975;BME280;38839;45.186;5.720;2022-09-09T07:16:56;99130.59;;;17.84;69.82
52975;BME280;38839;45.186;5.720;2022-09-09T07:19:22;99133.16;;;17.87;69.62
52975;BME280;38839;45.186;5.720;2022-09-09T07:21:48;99139.94;;;17.94;69.40
52975;BME280;38839;45.186;5.720;2022-09-09T07:24:14;99151.22;;;17.99;69.23
52975;BME280;38839;45.186;5.720;2022-09-09T07:26:40;99143.19;;;18.02;69.13
52975;BME280;38839;45.186;5.720;2022-09-09T07:29:07;99144.88;;;18.05;69.22
52975;BME280;38839;45.186;5.720;2022-09-09T07:31:35;99142.09;;;18.09;69.27
52975;BME280;38839;45.186;5.720;2022-09-09T07:34:02;99131.19;;;18.19;69.15
52975;BME280;38839;45.186;5.720;2022-09-09T07:36:36;99138.22;;;18.20;69.35
52975;BME280;38839;45.186;5.720;2022-09-09T07:39:05;99139.84;;;18.24;69.18
52975;BME280;38839;45.186;5.720;2022-09-09T07:41:33;99142.22;;;18.32;68.95
52975;BME280;38839;45.186;5.720;2022-09-09T07:44:04;99143.88;;;18.34;68.76
52975;BME280;38839;45.186;5.720;2022-09-09T07:46:30;99151.69;;;18.37;68.69
52975;BME280;38839;45.186;5.720;2022-09-09T07:48:56;99144.56;;;18.39;68.69
52975;BME280;38839;45.186;5.720;2022-09-09T07:51:28;99149.75;;;18.42;68.44
52975;BME280;38839;45.186;5.720;2022-09-09T07:53:59;99145.16;;;18.47;67.89
52975;BME280;38839;45.186;5.720;2022-09-09T07:56:26;99135.19;;;18.56;67.07
52975;BME280;38839;45.186;5.720;2022-09-09T07:58:54;99138.41;;;18.64;66.67
52975;BME280;38839;45.186;5.720;2022-09-09T08:01:29;99136.13;;;18.78;65.86
52975;BME280;38839;45.186;5.720;2022-09-09T08:03:58;99130.84;;;19.03;64.94
52975;BME280;38839;45.186;5.720;2022-09-09T08:06:25;99136.84;;;19.53;63.61
52975;BME280;38839;45.186;5.720;2022-09-09T08:08:52;99132.66;;;20.12;61.45
52975;BME280;38839;45.186;5.720;2022-09-09T08:11:20;99138.75;;;20.75;59.40
52975;BME280;38839;45.186;5.720;2022-09-09T08:13:46;99132.88;;;21.27;57.85
52975;BME280;38839;45.186;5.720;2022-09-09T08:16:15;99125.22;;;21.76;56.13
52975;BME280;38839;45.186;5.720;2022-09-09T08:18:41;99122.34;;;22.16;55.07
52975;BME280;38839;45.186;5.720;2022-09-09T08:21:12;99119.63;;;22.52;53.88
52975;BME280;38839;45.186;5.720;2022-09-09T08:23:40;99119.03;;;22.63;53.27
52975;BME280;38839;45.186;5.720;2022-09-09T08:26:11;99123.03;;;22.87;52.45
52975;BME280;38839;45.186;5.720;2022-09-09T08:28:37;99120.72;;;23.46;50.66
52975;BME280;38839;45.186;5.720;2022-09-09T08:31:21;99129.44;;;23.64;49.77
52975;BME280;38839;45.186;5.720;2022-09-09T08:33:47;99132.88;;;23.66;49.79
52975;BME280;38839;45.186;5.720;2022-09-09T08:36:24;99128.44;;;23.51;49.79
52975;BME280;38839;45.186;5.720;2022-09-09T08:38:56;99122.50;;;23.46;49.84
52975;BME280;38839;45.186;5.720;2022-09-09T08:52:30;99131.19;;;24.26;48.28
52975;BME280;38839;45.186;5.720;2022-09-09T08:55:02;99124.81;;;24.73;47.26
52975;BME280;38839;45.186;5.720;2022-09-09T08:57:30;99135.09;;;24.79;47.19
52975;BME280;38839;45.186;5.720;2022-09-09T08:59:58;99135.78;;;24.83;47.37
52975;BME280;38839;45.186;5.720;2022-09-09T09:02:26;99128.25;;;24.75;47.15
52975;BME280;38839;45.186;5.720;2022-09-09T09:05:00;99124.16;;;24.84;47.26
52975;BME280;38839;45.186;5.720;2022-09-09T09:07:55;99116.03;;;24.71;46.33
52975;BME280;38839;45.186;5.720;2022-09-09T09:12:55;99129.75;;;24.79;46.70
52975;BME280;38839;45.186;5.720;2022-09-09T09:15:24;99129.06;;;24.47;45.83
52975;BME280;38839;45.186;5.720;2022-09-09T09:17:50;99113.31;;;24.28;44.72
52975;BME280;38839;45.186;5.720;2022-09-09T09:20:17;99121.63;;;24.07;43.57
52975;BME280;38839;45.186;5.720;2022-09-09T09:22:51;99116.63;;;23.87;41.86
52975;BME280;38839;45.186;5.720;2022-09-09T09:27:59;99107.81;;;23.39;41.94
52975;BME280;38839;45.186;5.720;2022-09-09T09:35:53;99102.91;;;23.47;41.47
52975;BME280;38839;45.186;5.720;2022-09-09T09:38:21;99105.94;;;23.41;41.33
52975;BME280;38839;45.186;5.720;2022-09-09T09:43:26;99104.78;;;22.97;41.68
52975;BME280;38839;45.186;5.720;2022-09-09T09:45:52;99094.47;;;22.91;41.79
52975;BME280;38839;45.186;5.720;2022-09-09T09:48:17;99103.19;;;22.77;41.59
52975;BME280;38839;45.186;5.720;2022-09-09T09:51:08;99104.31;;;22.73;41.95
52975;BME280;38839;45.186;5.720;2022-09-09T09:53:36;99101.03;;;22.68;41.79
52975;BME280;38839;45.186;5.720;2022-09-09T09:56:13;99105.22;;;22.72;42.48
52975;BME280;38839;45.186;5.720;2022-09-09T10:01:26;99091.25;;;23.02;42.04
52975;BME280;38839;45.186;5.720;2022-09-09T10:04:13;99089.28;;;23.05;41.35
52975;BME280;38839;45.186;5.720;2022-09-09T10:06:40;99079.50;;;23.06;41.72
52975;BME280;38839;45.186;5.720;2022-09-09T10:09:24;99081.03;;;23.10;41.31
52975;BME280;38839;45.186;5.720;2022-09-09T10:20:32;99078.97;;;23.15;41.93
52975;BME280;38839;45.186;5.720;2022-09-09T10:23:18;99086.53;;;23.39;42.02
52975;BME280;38839;45.186;5.720;2022-09-09T10:36:32;99083.94;;;23.21;42.34
52975;BME280;38839;45.186;5.720;2022-09-09T10:50:29;99079.31;;;23.09;42.63
52975;BME280;38839;45.186;5.720;2022-09-09T10:56:03;99073.63;;;23.15;43.27
52975;BME280;38839;45.186;5.720;2022-09-09T11:01:13;99069.50;;;22.94;42.94
52975;BME280;38839;45.186;5.720;2022-09-09T11:03:41;99071.19;;;22.95;43.42
52975;BME280;38839;45.186;5.720;2022-09-09T11:06:23;99061.59;;;22.92;42.88
52975;BME280;38839;45.186;5.720;2022-09-09T11:08:53;99059.56;;;22.97;42.81
52975;BME280;38839;45.186;5.720;2022-09-09T11:11:42;99060.16;;;23.02;42.49
52975;BME280;38839;45.186;5.720;2022-09-09T11:14:33;99054.59;;;23.07;42.54
52975;BME280;38839;45.186;5.720;2022-09-09T11:17:22;99052.13;;;23.20;42.62
52975;BME280;38839;45.186;5.720;2022-09-09T11:19:49;99054.16;;;23.30;42.47
52975;BME280;38839;45.186;5.720;2022-09-09T11:22:23;99047.53;;;23.38;42.25
52975;BME280;38839;45.186;5.720;2022-09-09T11:24:53;99049.84;;;23.44;41.94
52975;BME280;38839;45.186;5.720;2022-09-09T11:27:35;99054.38;;;23.42;41.64
52975;BME280;38839;45.186;5.720;2022-09-09T11:30:11;99045.47;;;23.43;41.34
52975;BME280;38839;45.186;5.720;2022-09-09T11:33:05;99049.06;;;23.42;41.65
52975;BME280;38839;45.186;5.720;2022-09-09T11:40:46;99067.03;;;23.38;40.96
52975;BME280;38839;45.186;5.720;2022-09-09T11:43:23;99051.38;;;23.48;41.16
52975;BME280;38839;45.186;5.720;2022-09-09T11:45:54;99062.44;;;23.56;41.66
52975;BME280;38839;45.186;5.720;2022-09-09T11:48:44;99061.94;;;23.49;41.12
52975;BME280;38839;45.186;5.720;2022-09-09T11:53:58;99057.31;;;23.53;41.24
52975;BME280;38839;45.186;5.720;2022-09-09T11:56:32;99060.38;;;23.61;41.52
52975;BME280;38839;45.186;5.720;2022-09-09T11:59:06;99061.72;;;23.68;41.35
52975;BME280;38839;45.186;5.720;2022-09-09T12:01:39;99065.34;;;23.67;40.72
52975;BME280;38839;45.186;5.720;2022-09-09T12:06:54;99065.84;;;23.74;40.48
52975;BME280;38839;45.186;5.720;2022-09-09T12:12:32;99067.66;;;23.74;40.49
52975;BME280;38839;45.186;5.720;2022-09-09T12:17:26;99058.63;;;23.76;39.96
52975;BME280;38839;45.186;5.720;2022-09-09T12:30:54;99059.53;;;23.91;37.76
52975;BME280;38839;45.186;5.720;2022-09-09T12:33:22;99051.53;;;23.91;37.43
52975;BME280;38839;45.186;5.720;2022-09-09T12:35:55;99054.81;;;23.96;36.81
52975;BME280;38839;45.186;5.720;2022-09-09T12:38:37;99049.09;;;24.02;36.52
52975;BME280;38839;45.186;5.720;2022-09-09T12:41:03;99045.47;;;24.03;36.52
52975;BME280;38839;45.186;5.720;2022-09-09T12:43:29;99043.41;;;24.08;36.86
52975;BME280;38839;45.186;5.720;2022-09-09T12:46:00;99041.22;;;24.15;36.79
52975;BME280;38839;45.186;5.720;2022-09-09T12:48:39;99040.75;;;24.23;36.45
52975;BME280;38839;45.186;5.720;2022-09-09T12:51:23;99041.53;;;24.25;36.25
52975;BME280;38839;45.186;5.720;2022-09-09T12:53:51;99045.72;;;24.29;35.94
52975;BME280;38839;45.186;5.720;2022-09-09T12:56:25;99038.88;;;24.25;36.08
52975;BME280;38839;45.186;5.720;2022-09-09T12:58:56;99040.38;;;24.29;35.88
52975;BME280;38839;45.186;5.720;2022-09-09T13:01:31;99031.41;;;24.30;34.88
52975;BME280;38839;45.186;5.720;2022-09-09T13:03:58;99036.97;;;24.27;35.10
52975;BME280;38839;45.186;5.720;2022-09-09T13:06:29;99038.00;;;24.24;34.04
52975;BME280;38839;45.186;5.720;2022-09-09T13:08:57;99032.00;;;24.21;34.28
52975;BME280;38839;45.186;5.720;2022-09-09T13:13:54;99027.22;;;24.26;34.24
52975;BME280;38839;45.186;5.720;2022-09-09T13:16:27;99028.19;;;24.25;34.22
52975;BME280;38839;45.186;5.720;2022-09-09T13:18:58;99033.13;;;24.17;34.18
52975;BME280;38839;45.186;5.720;2022-09-09T13:21:36;99038.38;;;24.18;34.63
52975;BME280;38839;45.186;5.720;2022-09-09T13:24:21;99027.81;;;24.17;34.38
52975;BME280;38839;45.186;5.720;2022-09-09T13:27:00;99033.53;;;24.25;33.64
52975;BME280;38839;45.186;5.720;2022-09-09T13:29:30;99034.97;;;24.30;34.09
52975;BME280;38839;45.186;5.720;2022-09-09T13:32:16;99035.63;;;24.34;33.71
52975;BME280;38839;45.186;5.720;2022-09-09T13:34:51;99029.44;;;24.34;33.66
52975;BME280;38839;45.186;5.720;2022-09-09T13:37:28;99024.88;;;24.36;33.80
52975;BME280;38839;45.186;5.720;2022-09-09T13:39:56;99025.34;;;24.42;33.50
52975;BME280;38839;45.186;5.720;2022-09-09T13:42:29;99030.03;;;24.39;33.71
52975;BME280;38839;45.186;5.720;2022-09-09T13:44:57;99030.03;;;24.39;33.73
52975;BME280;38839;45.186;5.720;2022-09-09T13:47:43;99033.53;;;24.39;33.20
52975;BME280;38839;45.186;5.720;2022-09-09T13:50:26;99041.63;;;24.38;33.15
52975;BME280;38839;45.186;5.720;2022-09-09T13:52:53;99027.81;;;24.45;33.34
52975;BME280;38839;45.186;5.720;2022-09-09T13:55:20;99029.53;;;24.46;32.88
52975;BME280;38839;45.186;5.720;2022-09-09T13:58:03;99026.84;;;24.32;32.18
52975;BME280;38839;45.186;5.720;2022-09-09T14:00:32;99035.06;;;24.29;32.79
52975;BME280;38839;45.186;5.720;2022-09-09T14:02:58;99025.72;;;24.36;32.96
52975;BME280;38839;45.186;5.720;2022-09-09T14:05:26;99028.75;;;24.44;32.99
52975;BME280;38839;45.186;5.720;2022-09-09T14:07:52;99028.00;;;24.42;32.77
52975;BME280;38839;45.186;5.720;2022-09-09T14:10:18;99026.22;;;24.43;33.16
52975;BME280;38839;45.186;5.720;2022-09-09T14:12:44;99024.81;;;24.52;32.80
52975;BME280;38839;45.186;5.720;2022-09-09T14:15:11;99031.66;;;24.56;32.47
52975;BME280;38839;45.186;5.720;2022-09-09T14:17:36;99031.84;;;24.53;32.08
52975;BME280;38839;45.186;5.720;2022-09-09T14:20:06;99024.03;;;24.49;31.74
52975;BME280;38839;45.186;5.720;2022-09-09T14:22:36;99034.31;;;24.56;31.96
52975;BME280;38839;45.186;5.720;2022-09-09T14:25:02;99025.84;;;24.49;30.91
52975;BME280;38839;45.186;5.720;2022-09-09T14:27:28;99025.66;;;24.52;30.86
52975;BME280;38839;45.186;5.720;2022-09-09T14:29:53;99026.72;;;24.49;30.78
52975;BME280;38839;45.186;5.720;2022-09-09T14:32:19;99026.50;;;24.53;30.39
52975;BME280;38839;45.186;5.720;2022-09-09T14:34:45;99033.75;;;24.50;30.69
52975;BME280;38839;45.186;5.720;2022-09-09T14:37:10;99022.22;;;24.50;30.64
52975;BME280;38839;45.186;5.720;2022-09-09T14:39:35;99035.25;;;24.55;30.50
52975;BME280;38839;45.186;5.720;2022-09-09T14:42:01;99025.66;;;24.52;30.40
52975;BME280;38839;45.186;5.720;2022-09-09T14:44:27;99029.94;;;24.55;29.96
52975;BME280;38839;45.186;5.720;2022-09-09T14:46:52;99024.22;;;24.61;30.08
52975;BME280;38839;45.186;5.720;2022-09-09T14:49:19;99027.84;;;24.60;29.96
52975;BME280;38839;45.186;5.720;2022-09-09T14:51:44;99021.66;;;24.59;29.92
52975;BME280;38839;45.186;5.720;2022-09-09T14:54:10;99017.56;;;24.54;29.99
52975;BME280;38839;45.186;5.720;2022-09-09T14:56:35;99023.00;;;24.52;30.07
52975;BME280;38839;45.186;5.720;2022-09-09T14:59:01;99017.75;;;24.50;29.50
52975;BME280;38839;45.186;5.720;2022-09-09T15:01:28;99017.75;;;24.50;28.78
52975;BME280;38839;45.186;5.720;2022-09-09T15:03:56;99021.72;;;24.43;28.57
52975;BME280;38839;45.186;5.720;2022-09-09T15:06:23;99025.16;;;24.45;28.68
52975;BME280;38839;45.186;5.720;2022-09-09T15:08:51;99014.28;;;24.48;28.27
52975;BME280;38839;45.186;5.720;2022-09-09T15:11:17;99021.63;;;24.45;28.58
52975;BME280;38839;45.186;5.720;2022-09-09T15:13:44;99019.22;;;24.40;28.11
52975;BME280;38839;45.186;5.720;2022-09-09T15:16:14;99010.31;;;24.41;28.88
52975;BME280;38839;45.186;5.720;2022-09-09T15:18:40;99007.63;;;24.41;29.02
52975;BME280;38839;45.186;5.720;2022-09-09T15:21:11;99020.00;;;24.42;28.59